Airfield :
LOGIN :

Register | Disclaimer

   EN    FR    IT 

 










Legend :    VFR   Marginal VFR   IFR   Intensive IFR   Very Intensive IFR
Visi :
Ceiling :
>= 8 km
>= 3000ft
5 to 8 km
1000 to 3000 ft
1500m to 5 km
500 to 1000 ft
800 to 1500m
200 to 500 ft
< 800m
< 200 ft
Symbols :   Thunderstorms  Fog  Heavy snow  Heavy precipitations  Wind > 20 kt
SIGMETs :     Misc.  Thunderstorms  Icing  Turbulence  Mountain Waves  Volcanic Ashes






- Airport Elevation : 443 ft
- IATA code : GNA


UMMG - Grodno

CURRENT METAR :
  • 291200Z 25004MPS 9999 SCT023 BKN066 04/M00 Q0996 R17/290060 NOSIG

EXPIRED METARs :
  • 291130Z 25004MPS 9999 SCT020 BKN066 04/01 Q0996 R17/290060 NOSIG
  • 291100Z 25004MPS 9999 SCT020 BKN066 04/01 Q0996 R17/290060 NOSIG
  • 291030Z 24004MPS 9999 SCT020 BKN066 03/02 Q0996 R17/290060 NOSIG
  • 291000Z 24004MPS 9999 SCT020 BKN066 03/02 Q0996 R17/290060 NOSIG
  • 290930Z 23004MPS 9000 BKN015 BKN066 02/01 Q0996 R17/290060 NOSIG

TAF TAF UMMG
Valid from the 29 at 12:00 until the 29 at 21:00 UTC


291100Z 2912/2921 25003MPS 8000 BKN012 BKN020
TEMPO 2912/2915 26003G08MPS 4000 -SHRASN BR BKN007 BKN010CB
TEMPO 2915/2921 2000 SHSNRA BR BKN005 BKN007CB



MET'MAP, your aeronautical weather chart ! - Copyright ORBIFLY December 2007 - Disclaimer

ORBIFLY MET'MAP TEAM :

Programming & Development : Alexandra Zaïnal
Concept & original design : Baudouin d'Aumeries
Assistance for programming : Marc-Olivier Méhu
Technical & hardware support : Manuel Goepfert

Contact : metmap@orbifly.com




SOURCES & CREDITS :

   NOAA